Time;durP1;ratioP1;P1;durP2;ratioP2;P2;SDS_P1;SDS_P2;PMS_P1;PMS_P2;Temp;Humidity;BMP_temperature;BMP_pressure;BME280_temperature;BME280_humidity;BME280_pressure;Samples;Min_cycle;Max_cycle;Signal;HPM_P1;HPM_P2
2022/03/04 00:04:37;;;;;;;29.93;17.30;;;3.60;61.30;;;;;;20747281;28;20756;-63
2022/03/04 00:14:38;;;;;;;30.63;17.97;;;3.60;61.90;;;;;;20748248;28;20209;-63
2022/03/04 00:24:40;;;;;;;31.70;18.00;;;3.50;62.10;;;;;;20747775;28;20236;-64
2022/03/04 00:34:42;;;;;;;30.83;17.60;;;3.40;62.40;;;;;;20747285;28;20213;-64
2022/03/04 00:44:44;;;;;;;36.03;18.10;;;3.30;62.90;;;;;;20746759;28;20287;-64
2022/03/04 00:54:46;;;;;;;29.47;17.27;;;3.30;63.80;;;;;;20752144;28;20217;-64
2022/03/04 01:04:47;;;;;;;33.23;18.50;;;3.10;63.80;;;;;;20760794;28;20244;-64
2022/03/04 01:14:51;;;;;;;35.77;18.13;;;3.00;64.10;;;;;;20761431;28;20205;-64
2022/03/04 01:24:53;;;;;;;36.87;19.27;;;2.90;64.40;;;;;;20757838;28;20631;-65
2022/03/04 01:34:55;;;;;;;32.80;17.97;;;2.90;65.10;;;;;;20759854;28;20237;-65
2022/03/04 01:44:57;;;;;;;35.13;18.80;;;3.00;64.50;;;;;;20759135;28;20241;-65
2022/03/04 01:54:58;;;;;;;37.67;19.20;;;3.00;65.10;;;;;;20758919;28;20213;-64
2022/03/04 02:05:02;;;;;;;35.60;18.80;;;2.80;65.10;;;;;;20756399;28;20240;-63
2022/03/04 02:15:05;;;;;;;36.80;19.80;;;2.80;65.00;;;;;;20757041;28;20209;-65
2022/03/04 02:25:07;;;;;;;37.07;19.10;;;2.80;65.60;;;;;;20756381;28;20282;-65
2022/03/04 02:35:09;;;;;;;36.60;19.10;;;2.60;65.50;;;;;;20755350;28;20209;-64
2022/03/04 02:45:11;;;;;;;33.80;18.67;;;2.60;66.10;;;;;;20754545;28;20650;-65
2022/03/04 02:55:13;;;;;;;33.73;19.17;;;2.60;66.40;;;;;;20754052;28;20221;-64
2022/03/04 03:05:14;;;;;;;35.07;18.83;;;2.40;66.70;;;;;;20752811;28;20248;-64
2022/03/04 03:15:16;;;;;;;34.40;18.83;;;2.40;67.20;;;;;;20752074;28;20270;-65
2022/03/04 03:25:18;;;;;;;33.30;18.97;;;2.40;67.20;;;;;;20748722;28;20232;-64
2022/03/04 03:35:20;;;;;;;36.73;19.00;;;2.40;67.50;;;;;;20751370;28;20630;-65
2022/03/04 03:45:22;;;;;;;38.03;19.17;;;2.30;67.50;;;;;;20750295;28;20291;-65
2022/03/04 03:55:23;;;;;;;35.17;19.07;;;2.10;67.40;;;;;;20750050;28;20668;-65
2022/03/04 04:05:25;;;;;;;34.73;18.87;;;2.10;67.40;;;;;;20748726;28;20240;-65
2022/03/04 04:15:27;;;;;;;37.57;20.33;;;2.00;67.80;;;;;;20748492;28;20253;-64
2022/03/04 04:25:28;;;;;;;34.87;19.60;;;2.00;68.30;;;;;;20747715;28;20312;-64
2022/03/04 04:35:30;;;;;;;34.30;19.43;;;1.90;67.70;;;;;;20747350;28;20208;-65
2022/03/04 04:45:32;;;;;;;37.67;19.17;;;1.80;68.00;;;;;;20747057;28;20229;-64
2022/03/04 04:55:34;;;;;;;37.27;19.53;;;1.80;67.90;;;;;;20746640;28;20211;-64
2022/03/04 05:05:36;;;;;;;34.13;20.33;;;1.80;68.10;;;;;;20746324;28;20247;-64
2022/03/04 05:15:38;;;;;;;37.50;20.20;;;1.70;68.10;;;;;;20745788;28;20267;-63
2022/03/04 05:25:40;;;;;;;34.43;19.70;;;1.50;68.00;;;;;;20797671;28;20242;-64
2022/03/04 05:35:41;;;;;;;38.43;20.00;;;1.50;68.60;;;;;;20826929;28;20674;-64
2022/03/04 05:45:43;;;;;;;45.83;21.07;;;1.50;68.60;;;;;;20837101;28;20247;-64
2022/03/04 05:55:45;;;;;;;53.60;21.07;;;1.50;69.30;;;;;;20839940;28;20234;-64
2022/03/04 06:05:46;;;;;;;50.77;22.00;;;1.40;69.40;;;;;;20839652;28;20299;-64
2022/03/04 06:15:48;;;;;;;43.57;21.63;;;1.40;69.50;;;;;;20837493;28;20261;-63
2022/03/04 06:25:50;;;;;;;45.27;22.33;;;1.40;70.50;;;;;;20837789;28;20236;-64
2022/03/04 06:35:53;;;;;;;43.03;23.67;;;1.40;70.90;;;;;;20837053;28;20212;-64
2022/03/04 06:45:55;;;;;;;44.30;23.43;;;1.50;71.70;;;;;;20836002;28;20246;-64
2022/03/04 06:55:57;;;;;;;58.03;25.70;;;1.70;72.40;;;;;;20834909;28;20209;-65
2022/03/04 07:05:59;;;;;;;47.57;24.93;;;1.80;72.60;;;;;;20833992;28;20247;-69
2022/03/04 07:22:57;;;;;;;47.00;23.70;;;2.00;73.00;;;;;;20950017;28;20574;-67
2022/03/04 07:32:59;;;;;;;46.27;23.83;;;2.30;73.10;;;;;;20898934;28;20214;-65
2022/03/04 07:43:01;;;;;;;48.87;24.03;;;2.70;73.30;;;;;;20899411;28;20261;-65
2022/03/04 07:53:03;;;;;;;54.23;28.90;;;3.10;73.20;;;;;;20898704;28;20265;-64
2022/03/04 08:03:05;;;;;;;82.67;44.20;;;3.40;72.70;;;;;;20895974;28;20258;-69
2022/03/04 08:13:07;;;;;;;80.43;40.30;;;3.60;72.30;;;;;;20895961;28;20258;-68
2022/03/04 08:23:10;;;;;;;62.70;30.07;;;3.80;73.00;;;;;;20896537;28;20214;-69
2022/03/04 08:33:12;;;;;;;74.20;35.97;;;4.20;71.90;;;;;;20847023;28;20215;-69
2022/03/04 08:43:13;;;;;;;58.00;28.77;;;4.40;71.10;;;;;;20840242;28;20227;-72
2022/03/04 08:53:15;;;;;;;50.87;26.23;;;4.50;71.60;;;;;;20838267;28;20656;-72
2022/03/04 09:03:17;;;;;;;52.70;27.27;;;4.80;70.10;;;;;;20837136;28;20232;-66
2022/03/04 09:13:19;;;;;;;47.93;26.33;;;5.00;68.70;;;;;;20835645;28;20246;-70
2022/03/04 09:23:21;;;;;;;52.87;27.27;;;5.00;68.70;;;;;;20836567;28;20258;-64
2022/03/04 09:33:28;;;;;;;46.97;24.47;;;5.10;67.80;;;;;;20835047;28;20323;-63
2022/03/04 09:43:30;;;;;;;46.77;24.23;;;5.40;67.70;;;;;;20833885;28;20262;-68
2022/03/04 09:53:31;;;;;;;42.03;23.07;;;5.50;68.10;;;;;;20833702;28;20259;-67
2022/03/04 10:03:33;;;;;;;40.60;21.67;;;5.90;66.60;;;;;;20832706;28;20305;-59
2022/03/04 10:13:48;;;;;;;42.50;22.37;;;6.10;65.80;;;;;;20831849;28;20236;-66
2022/03/04 10:24:06;;;;;;;37.97;20.67;;;6.20;66.40;;;;;;20830718;28;20210;-62
2022/03/04 10:34:10;;;;;;;35.37;18.70;;;6.30;65.10;;;;;;20840070;28;20598;-62
2022/03/04 10:44:31;;;;;;;33.93;18.60;;;6.70;63.90;;;;;;20846737;28;20311;-62
2022/03/04 10:54:33;;;;;;;31.80;16.30;;;6.80;64.40;;;;;;20832238;28;20251;-60
2022/03/04 11:04:35;;;;;;;30.10;17.97;;;6.80;62.10;;;;;;20829298;28;20203;-61
2022/03/04 11:14:37;;;;;;;29.90;16.13;;;7.20;61.30;;;;;;20827858;28;20748;-66
2022/03/04 11:24:39;;;;;;;28.53;16.37;;;7.20;61.10;;;;;;20828178;28;20211;-62
2022/03/04 11:34:44;;;;;;;26.10;15.23;;;7.40;61.20;;;;;;20827695;28;20247;-60
2022/03/04 11:44:57;;;;;;;22.33;12.90;;;7.80;59.10;;;;;;20825201;28;20614;-65
2022/03/04 11:54:58;;;;;;;22.70;12.80;;;7.80;59.60;;;;;;20820845;28;20242;-69
2022/03/04 12:05:18;;;;;;;21.20;12.17;;;8.20;57.30;;;;;;20832700;28;20266;-59
2022/03/04 12:15:20;;;;;;;21.07;12.13;;;8.50;56.70;;;;;;20838697;28;20240;-59
2022/03/04 12:25:22;;;;;;;17.47;10.57;;;8.90;54.90;;;;;;20838564;28;20304;-59
2022/03/04 12:35:24;;;;;;;28.67;10.27;;;9.10;53.60;;;;;;20835789;28;20292;-59
2022/03/04 12:45:26;;;;;;;16.57;9.57;;;9.20;53.90;;;;;;20836898;28;20670;-60
2022/03/04 12:55:36;;;;;;;18.23;10.00;;;9.50;52.60;;;;;;20836186;28;20318;-61
2022/03/04 13:05:46;;;;;;;18.20;9.17;;;10.20;54.40;;;;;;20833270;28;20212;-60
2022/03/04 13:15:51;;;;;;;12.07;7.07;;;10.70;53.70;;;;;;20835350;28;20292;-65
2022/03/04 13:25:52;;;;;;;11.90;7.73;;;11.00;52.00;;;;;;20835126;28;20204;-62
2022/03/04 13:35:57;;;;;;;14.37;7.87;;;;;;;;;;20834940;28;20236;-64
2022/03/04 13:46:11;;;;;;;14.20;7.07;;;11.60;50.00;;;;;;20833154;28;20655;-66
2022/03/04 13:56:13;;;;;;;12.83;6.80;;;;;;;;;;20832054;28;20233;-66
2022/03/04 14:06:17;;;;;;;11.23;6.30;;;11.80;47.10;;;;;;20829558;28;20204;-70
2022/03/04 14:16:21;;;;;;;10.90;6.40;;;;;;;;;;20829755;28;20286;-64
2022/03/04 14:26:23;;;;;;;14.23;7.87;;;;;;;;;;20830651;28;20212;-61
2022/03/04 14:36:26;;;;;;;11.20;6.70;;;;;;;;;;20835267;28;20270;-62
2022/03/04 14:46:48;;;;;;;11.27;7.20;;;;;;;;;;20841456;28;20257;-62
2022/03/04 14:56:50;;;;;;;11.17;6.37;;;16.00;36.70;;;;;;20824378;28;20232;-62
2022/03/04 15:06:51;;;;;;;12.07;7.10;;;16.10;37.30;;;;;;20830149;28;20209;-62
2022/03/04 15:16:53;;;;;;;10.97;6.57;;;19.50;33.90;;;;;;20829403;28;20283;-61
2022/03/04 15:26:56;;;;;;;10.60;7.27;;;20.40;32.80;;;;;;20830866;28;20209;-62
2022/03/04 15:36:59;;;;;;;11.10;7.20;;;19.10;31.30;;;;;;20832659;28;20676;-62
2022/03/04 15:47:21;;;;;;;9.03;6.57;;;16.50;32.10;;;;;;20845799;28;20896;-60
2022/03/04 15:57:22;;;;;;;11.63;7.37;;;16.30;31.40;;;;;;20843732;28;20244;-61
2022/03/04 16:07:24;;;;;;;14.60;8.23;;;12.80;33.20;;;;;;20843378;28;20258;-60
2022/03/04 16:17:27;;;;;;;16.63;9.70;;;12.20;34.80;;;;;;20842606;28;20359;-62
2022/03/04 16:27:28;;;;;;;17.40;10.07;;;11.00;37.00;;;;;;20879699;28;20215;-61
2022/03/04 16:37:31;;;;;;;16.70;9.50;;;10.80;38.20;;;;;;20845921;28;20278;-62
2022/03/04 16:47:32;;;;;;;19.43;10.10;;;10.30;39.30;;;;;;20838134;28;20281;-60
2022/03/04 16:57:34;;;;;;;16.20;9.53;;;9.90;41.30;;;;;;20836551;28;20294;-61
2022/03/04 17:07:36;;;;;;;20.00;10.83;;;9.50;42.90;;;;;;20837401;28;20206;-67
2022/03/04 17:17:38;;;;;;;17.80;10.00;;;9.20;44.30;;;;;;20837439;28;20237;-63
2022/03/04 17:27:40;;;;;;;15.47;8.93;;;8.80;45.20;;;;;;20836997;28;20211;-67
2022/03/04 17:37:43;;;;;;;17.20;8.90;;;8.60;46.40;;;;;;20834837;28;20236;-66
2022/03/04 17:47:45;;;;;;;16.07;8.70;;;8.40;47.30;;;;;;20836585;28;20257;-62
2022/03/04 17:57:47;;;;;;;15.77;8.87;;;8.10;48.30;;;;;;20844823;28;20772;-65
2022/03/04 18:07:49;;;;;;;16.40;9.00;;;7.90;49.50;;;;;;20835044;28;20217;-65
2022/03/04 18:17:51;;;;;;;16.13;9.93;;;7.70;50.10;;;;;;20833750;28;20296;-64
2022/03/04 18:27:53;;;;;;;18.37;10.13;;;7.40;51.30;;;;;;20830219;28;20700;-67
2022/03/04 18:40:09;;;;;;;19.93;10.27;;;7.40;51.80;;;;;;20834159;28;20235;-66
2022/03/04 18:48:16;;;;;;;18.67;10.37;;;7.20;52.10;;;;;;20828868;28;20616;-70
2022/03/04 18:58:18;;;;;;;15.83;9.43;;;7.00;53.10;;;;;;20827904;28;20264;-66
2022/03/04 19:08:20;;;;;;;21.97;10.73;;;6.80;53.60;;;;;;20827615;28;20204;-64
2022/03/04 19:18:21;;;;;;;23.23;10.00;;;6.60;54.10;;;;;;20827534;28;20291;-62
2022/03/04 19:28:23;;;;;;;19.30;9.87;;;6.50;54.60;;;;;;20827599;28;20280;-67
2022/03/04 19:38:25;;;;;;;18.47;9.70;;;6.20;54.70;;;;;;20827170;28;20241;-65
2022/03/04 19:48:27;;;;;;;28.10;10.87;;;6.20;54.80;;;;;;20825920;28;20208;-67
2022/03/04 19:58:29;;;;;;;19.00;9.73;;;6.10;55.40;;;;;;20827434;28;20234;-65
2022/03/04 20:08:32;;;;;;;18.10;10.40;;;6.00;55.90;;;;;;20827136;28;20205;-63
2022/03/04 20:18:34;;;;;;;21.00;10.40;;;5.90;56.20;;;;;;20826877;28;20302;-66
2022/03/04 20:28:36;;;;;;;21.43;10.53;;;5.50;56.20;;;;;;20838232;28;20274;-63
2022/03/04 20:38:44;;;;;;;19.10;9.63;;;5.30;56.60;;;;;;20841751;28;20275;-62
2022/03/04 20:48:46;;;;;;;23.10;10.57;;;5.20;56.90;;;;;;20840351;28;20660;-62
2022/03/04 20:58:47;;;;;;;21.30;10.43;;;5.10;57.00;;;;;;20839345;28;20244;-69
2022/03/04 21:08:50;;;;;;;22.20;10.57;;;5.20;57.70;;;;;;20838464;28;20235;-65
2022/03/04 21:18:52;;;;;;;25.37;10.27;;;5.10;57.80;;;;;;20837719;28;20243;-65
2022/03/04 21:28:54;;;;;;;21.20;10.77;;;4.90;57.80;;;;;;20836781;28;20220;-65
2022/03/04 21:38:56;;;;;;;20.50;10.23;;;4.90;58.00;;;;;;20849613;28;20228;-67
2022/03/04 21:48:58;;;;;;;21.10;10.47;;;4.90;58.20;;;;;;20834929;28;20209;-64
2022/03/04 21:59:00;;;;;;;21.80;10.67;;;4.70;58.90;;;;;;20833834;28;20809;-64
2022/03/04 22:09:02;;;;;;;25.33;11.67;;;4.50;58.70;;;;;;20833236;28;20205;-66
2022/03/04 22:19:04;;;;;;;24.90;12.10;;;4.40;59.00;;;;;;20832627;28;20245;-63
2022/03/04 22:29:06;;;;;;;23.70;11.70;;;4.20;59.80;;;;;;20839183;28;20201;-65
2022/03/04 22:39:08;;;;;;;27.00;12.20;;;4.00;60.20;;;;;;20836788;28;20229;-62
2022/03/04 22:49:10;;;;;;;23.57;11.63;;;4.00;60.80;;;;;;20831594;28;20200;-66
2022/03/04 22:59:11;;;;;;;22.40;11.13;;;3.90;60.90;;;;;;20830001;28;20232;-69
2022/03/04 23:09:13;;;;;;;25.97;11.97;;;3.70;61.30;;;;;;20824743;28;20652;-64
2022/03/04 23:19:16;;;;;;;26.83;12.00;;;3.60;61.90;;;;;;20824709;28;20246;-63
2022/03/04 23:29:18;;;;;;;28.50;12.80;;;3.30;62.30;;;;;;20828705;28;20208;-63
2022/03/04 23:39:20;;;;;;;22.83;11.77;;;3.20;62.90;;;;;;20828701;28;20753;-64
2022/03/04 23:49:21;;;;;;;30.07;11.83;;;3.20;63.20;;;;;;20828809;28;20208;-63
2022/03/04 23:59:23;;;;;;;31.30;12.93;;;3.10;64.00;;;;;;20832478;28;20236;-67
